sensor_id;sensor_type;location;lat;lon;timestamp;P1;durP1;ratioP1;P2;durP2;ratioP2
58878;SDS011;44660;42.664;23.266;2023-04-04T00:00:31;9.85;;;6.05;;
58878;SDS011;44660;42.664;23.266;2023-04-04T00:02:56;7.13;;;4.63;;
58878;SDS011;44660;42.664;23.266;2023-04-04T00:05:22;7.80;;;5.65;;
58878;SDS011;44660;42.664;23.266;2023-04-04T00:07:48;8.05;;;5.30;;
58878;SDS011;44660;42.664;23.266;2023-04-04T00:10:13;5.97;;;4.13;;
58878;SDS011;44660;42.664;23.266;2023-04-04T00:12:40;3.58;;;2.20;;
58878;SDS011;44660;42.664;23.266;2023-04-04T00:15:06;2.50;;;1.50;;
58878;SDS011;44660;42.664;23.266;2023-04-04T00:17:32;5.30;;;2.17;;
58878;SDS011;44660;42.664;23.266;2023-04-04T00:19:57;1.52;;;1.42;;
58878;SDS011;44660;42.664;23.266;2023-04-04T00:22:23;1.08;;;1.02;;
58878;SDS011;44660;42.664;23.266;2023-04-04T00:24:49;3.92;;;1.50;;
58878;SDS011;44660;42.664;23.266;2023-04-04T00:27:15;2.40;;;1.35;;
58878;SDS011;44660;42.664;23.266;2023-04-04T00:29:40;1.30;;;1.20;;
58878;SDS011;44660;42.664;23.266;2023-04-04T00:32:06;2.75;;;1.92;;
58878;SDS011;44660;42.664;23.266;2023-04-04T00:34:31;17.98;;;6.10;;
58878;SDS011;44660;42.664;23.266;2023-04-04T00:36:57;4.38;;;2.58;;
58878;SDS011;44660;42.664;23.266;2023-04-04T00:39:23;6.93;;;3.13;;
58878;SDS011;44660;42.664;23.266;2023-04-04T00:41:50;2.30;;;2.08;;
58878;SDS011;44660;42.664;23.266;2023-04-04T00:44:16;3.35;;;2.70;;
58878;SDS011;44660;42.664;23.266;2023-04-04T00:46:42;2.63;;;2.30;;
58878;SDS011;44660;42.664;23.266;2023-04-04T00:49:07;3.20;;;2.30;;
58878;SDS011;44660;42.664;23.266;2023-04-04T00:51:33;2.70;;;2.40;;
58878;SDS011;44660;42.664;23.266;2023-04-04T00:53:58;4.85;;;3.35;;
58878;SDS011;44660;42.664;23.266;2023-04-04T00:56:24;2.70;;;2.50;;
58878;SDS011;44660;42.664;23.266;2023-04-04T00:58:50;4.30;;;3.50;;
58878;SDS011;44660;42.664;23.266;2023-04-04T01:01:16;3.55;;;2.88;;
58878;SDS011;44660;42.664;23.266;2023-04-04T01:03:41;4.07;;;2.90;;
58878;SDS011;44660;42.664;23.266;2023-04-04T01:06:08;4.95;;;3.90;;
58878;SDS011;44660;42.664;23.266;2023-04-04T01:08:34;5.25;;;3.85;;
58878;SDS011;44660;42.664;23.266;2023-04-04T01:13:29;12.40;;;7.22;;
58878;SDS011;44660;42.664;23.266;2023-04-04T01:15:56;4.18;;;3.50;;
58878;SDS011;44660;42.664;23.266;2023-04-04T01:18:22;3.95;;;3.33;;
58878;SDS011;44660;42.664;23.266;2023-04-04T01:20:56;5.57;;;3.97;;
58878;SDS011;44660;42.664;23.266;2023-04-04T01:23:34;4.88;;;3.47;;
58878;SDS011;44660;42.664;23.266;2023-04-04T01:26:09;8.00;;;5.03;;
58878;SDS011;44660;42.664;23.266;2023-04-04T01:28:35;9.77;;;5.97;;
58878;SDS011;44660;42.664;23.266;2023-04-04T01:31:00;8.15;;;5.00;;
58878;SDS011;44660;42.664;23.266;2023-04-04T01:33:28;6.18;;;4.25;;
58878;SDS011;44660;42.664;23.266;2023-04-04T01:39:04;5.35;;;4.05;;
58878;SDS011;44660;42.664;23.266;2023-04-04T01:41:39;6.57;;;4.07;;
58878;SDS011;44660;42.664;23.266;2023-04-04T01:44:05;5.18;;;3.60;;
58878;SDS011;44660;42.664;23.266;2023-04-04T01:46:34;10.25;;;5.93;;
58878;SDS011;44660;42.664;23.266;2023-04-04T01:49:00;4.88;;;4.18;;
58878;SDS011;44660;42.664;23.266;2023-04-04T01:51:26;3.90;;;3.00;;
58878;SDS011;44660;42.664;23.266;2023-04-04T01:53:53;3.45;;;2.92;;
58878;SDS011;44660;42.664;23.266;2023-04-04T01:56:18;3.88;;;3.15;;
58878;SDS011;44660;42.664;23.266;2023-04-04T01:58:44;4.82;;;3.47;;
58878;SDS011;44660;42.664;23.266;2023-04-04T02:01:09;4.28;;;2.88;;
58878;SDS011;44660;42.664;23.266;2023-04-04T02:03:34;3.55;;;2.75;;
58878;SDS011;44660;42.664;23.266;2023-04-04T02:06:00;3.08;;;2.65;;
58878;SDS011;44660;42.664;23.266;2023-04-04T02:08:26;6.15;;;4.03;;
58878;SDS011;44660;42.664;23.266;2023-04-04T02:10:51;4.35;;;3.47;;
58878;SDS011;44660;42.664;23.266;2023-04-04T02:13:17;7.72;;;3.92;;
58878;SDS011;44660;42.664;23.266;2023-04-04T02:15:42;2.92;;;2.25;;
58878;SDS011;44660;42.664;23.266;2023-04-04T02:18:08;3.58;;;2.10;;
58878;SDS011;44660;42.664;23.266;2023-04-04T02:20:34;2.08;;;1.52;;
58878;SDS011;44660;42.664;23.266;2023-04-04T02:22:59;7.90;;;3.83;;
58878;SDS011;44660;42.664;23.266;2023-04-04T02:25:25;3.92;;;2.63;;
58878;SDS011;44660;42.664;23.266;2023-04-04T02:27:50;5.88;;;3.13;;
58878;SDS011;44660;42.664;23.266;2023-04-04T02:30:16;6.75;;;3.42;;
58878;SDS011;44660;42.664;23.266;2023-04-04T02:32:43;4.65;;;1.67;;
58878;SDS011;44660;42.664;23.266;2023-04-04T02:35:08;1.55;;;1.20;;
58878;SDS011;44660;42.664;23.266;2023-04-04T02:37:34;18.95;;;6.82;;
58878;SDS011;44660;42.664;23.266;2023-04-04T02:39:59;16.70;;;5.85;;
58878;SDS011;44660;42.664;23.266;2023-04-04T02:42:25;12.52;;;4.57;;
58878;SDS011;44660;42.664;23.266;2023-04-04T02:44:50;59.08;;;16.10;;
58878;SDS011;44660;42.664;23.266;2023-04-04T02:47:16;21.80;;;6.68;;
58878;SDS011;44660;42.664;23.266;2023-04-04T02:49:41;3.90;;;2.17;;
58878;SDS011;44660;42.664;23.266;2023-04-04T02:52:07;2.67;;;1.55;;
58878;SDS011;44660;42.664;23.266;2023-04-04T02:54:32;5.80;;;3.03;;
58878;SDS011;44660;42.664;23.266;2023-04-04T02:56:58;8.45;;;3.78;;
58878;SDS011;44660;42.664;23.266;2023-04-04T02:59:23;4.88;;;3.10;;
58878;SDS011;44660;42.664;23.266;2023-04-04T03:01:49;6.82;;;3.90;;
58878;SDS011;44660;42.664;23.266;2023-04-04T03:04:15;7.75;;;4.30;;
58878;SDS011;44660;42.664;23.266;2023-04-04T03:06:42;5.78;;;3.55;;
58878;SDS011;44660;42.664;23.266;2023-04-04T03:09:07;6.53;;;4.43;;
58878;SDS011;44660;42.664;23.266;2023-04-04T03:11:33;9.23;;;4.55;;
58878;SDS011;44660;42.664;23.266;2023-04-04T03:13:58;10.35;;;5.47;;
58878;SDS011;44660;42.664;23.266;2023-04-04T03:16:24;14.35;;;7.22;;
58878;SDS011;44660;42.664;23.266;2023-04-04T03:18:49;11.45;;;6.43;;
58878;SDS011;44660;42.664;23.266;2023-04-04T03:21:15;10.32;;;5.20;;
58878;SDS011;44660;42.664;23.266;2023-04-04T03:23:41;8.27;;;5.15;;
58878;SDS011;44660;42.664;23.266;2023-04-04T03:26:07;10.02;;;5.93;;
58878;SDS011;44660;42.664;23.266;2023-04-04T03:28:32;7.32;;;4.68;;
58878;SDS011;44660;42.664;23.266;2023-04-04T03:31:02;6.63;;;4.50;;
58878;SDS011;44660;42.664;23.266;2023-04-04T03:33:28;8.75;;;4.10;;
58878;SDS011;44660;42.664;23.266;2023-04-04T03:35:53;5.25;;;3.83;;
58878;SDS011;44660;42.664;23.266;2023-04-04T03:38:19;6.55;;;3.60;;
58878;SDS011;44660;42.664;23.266;2023-04-04T03:40:44;6.20;;;3.80;;
58878;SDS011;44660;42.664;23.266;2023-04-04T03:43:10;6.70;;;4.05;;
58878;SDS011;44660;42.664;23.266;2023-04-04T03:45:36;9.32;;;4.50;;
58878;SDS011;44660;42.664;23.266;2023-04-04T03:48:01;5.57;;;3.47;;
58878;SDS011;44660;42.664;23.266;2023-04-04T03:50:27;4.88;;;3.63;;
58878;SDS011;44660;42.664;23.266;2023-04-04T03:52:53;4.57;;;3.25;;
58878;SDS011;44660;42.664;23.266;2023-04-04T03:55:18;5.22;;;3.33;;
58878;SDS011;44660;42.664;23.266;2023-04-04T03:57:44;6.45;;;4.53;;
58878;SDS011;44660;42.664;23.266;2023-04-04T04:00:10;6.00;;;4.25;;
58878;SDS011;44660;42.664;23.266;2023-04-04T04:02:36;6.57;;;4.13;;
58878;SDS011;44660;42.664;23.266;2023-04-04T04:05:02;6.30;;;4.25;;
58878;SDS011;44660;42.664;23.266;2023-04-04T04:07:27;6.32;;;4.57;;
58878;SDS011;44660;42.664;23.266;2023-04-04T04:09:53;9.00;;;4.95;;
58878;SDS011;44660;42.664;23.266;2023-04-04T04:12:18;8.73;;;4.97;;
58878;SDS011;44660;42.664;23.266;2023-04-04T04:14:44;5.25;;;3.90;;
58878;SDS011;44660;42.664;23.266;2023-04-04T04:17:09;5.22;;;3.97;;
58878;SDS011;44660;42.664;23.266;2023-04-04T04:19:35;6.50;;;4.70;;
58878;SDS011;44660;42.664;23.266;2023-04-04T04:22:00;7.80;;;4.13;;
58878;SDS011;44660;42.664;23.266;2023-04-04T04:24:26;6.57;;;4.18;;
58878;SDS011;44660;42.664;23.266;2023-04-04T04:26:51;7.22;;;5.00;;
58878;SDS011;44660;42.664;23.266;2023-04-04T04:29:17;8.15;;;5.50;;
58878;SDS011;44660;42.664;23.266;2023-04-04T04:31:43;17.10;;;10.68;;
58878;SDS011;44660;42.664;23.266;2023-04-04T04:34:08;45.28;;;25.25;;
58878;SDS011;44660;42.664;23.266;2023-04-04T04:36:34;44.50;;;25.48;;
58878;SDS011;44660;42.664;23.266;2023-04-04T04:39:00;13.50;;;7.70;;
58878;SDS011;44660;42.664;23.266;2023-04-04T04:41:25;37.85;;;23.58;;
58878;SDS011;44660;42.664;23.266;2023-04-04T04:43:53;36.13;;;21.20;;
58878;SDS011;44660;42.664;23.266;2023-04-04T04:46:19;23.95;;;15.27;;
58878;SDS011;44660;42.664;23.266;2023-04-04T04:48:44;12.60;;;7.88;;
58878;SDS011;44660;42.664;23.266;2023-04-04T04:51:10;11.88;;;8.20;;
58878;SDS011;44660;42.664;23.266;2023-04-04T04:53:35;17.67;;;9.80;;
58878;SDS011;44660;42.664;23.266;2023-04-04T04:56:01;13.55;;;7.75;;
58878;SDS011;44660;42.664;23.266;2023-04-04T04:58:27;22.13;;;14.05;;
58878;SDS011;44660;42.664;23.266;2023-04-04T05:00:55;11.90;;;8.50;;
58878;SDS011;44660;42.664;23.266;2023-04-04T05:03:24;10.30;;;7.53;;
58878;SDS011;44660;42.664;23.266;2023-04-04T05:05:49;11.93;;;7.60;;
58878;SDS011;44660;42.664;23.266;2023-04-04T05:08:15;11.20;;;7.45;;
58878;SDS011;44660;42.664;23.266;2023-04-04T05:10:41;11.70;;;7.35;;
58878;SDS011;44660;42.664;23.266;2023-04-04T05:13:06;13.20;;;7.63;;
58878;SDS011;44660;42.664;23.266;2023-04-04T05:15:32;9.32;;;6.95;;
58878;SDS011;44660;42.664;23.266;2023-04-04T05:17:57;11.52;;;7.57;;
58878;SDS011;44660;42.664;23.266;2023-04-04T05:20:23;12.82;;;7.55;;
58878;SDS011;44660;42.664;23.266;2023-04-04T05:22:49;12.70;;;7.57;;
58878;SDS011;44660;42.664;23.266;2023-04-04T05:25:15;11.30;;;7.40;;
58878;SDS011;44660;42.664;23.266;2023-04-04T05:27:40;10.73;;;7.30;;
58878;SDS011;44660;42.664;23.266;2023-04-04T05:30:07;15.63;;;7.35;;
58878;SDS011;44660;42.664;23.266;2023-04-04T05:32:33;10.30;;;7.65;;
58878;SDS011;44660;42.664;23.266;2023-04-04T05:34:59;11.60;;;7.55;;
58878;SDS011;44660;42.664;23.266;2023-04-04T05:37:25;12.93;;;8.88;;
58878;SDS011;44660;42.664;23.266;2023-04-04T05:39:51;16.67;;;10.13;;
58878;SDS011;44660;42.664;23.266;2023-04-04T05:42:17;16.10;;;9.55;;
58878;SDS011;44660;42.664;23.266;2023-04-04T05:44:43;26.52;;;17.45;;
58878;SDS011;44660;42.664;23.266;2023-04-04T05:47:08;21.55;;;14.35;;
58878;SDS011;44660;42.664;23.266;2023-04-04T05:49:34;16.83;;;12.80;;
58878;SDS011;44660;42.664;23.266;2023-04-04T05:51:59;15.98;;;9.90;;
58878;SDS011;44660;42.664;23.266;2023-04-04T05:54:25;13.45;;;8.95;;
58878;SDS011;44660;42.664;23.266;2023-04-04T05:56:51;15.02;;;9.65;;
58878;SDS011;44660;42.664;23.266;2023-04-04T05:59:16;17.83;;;13.52;;
58878;SDS011;44660;42.664;23.266;2023-04-04T06:01:41;11.48;;;8.48;;
58878;SDS011;44660;42.664;23.266;2023-04-04T06:04:07;12.50;;;6.57;;
58878;SDS011;44660;42.664;23.266;2023-04-04T06:06:33;10.48;;;6.43;;
58878;SDS011;44660;42.664;23.266;2023-04-04T06:08:59;10.02;;;7.75;;
58878;SDS011;44660;42.664;23.266;2023-04-04T06:11:25;9.27;;;6.68;;
58878;SDS011;44660;42.664;23.266;2023-04-04T06:13:51;9.77;;;6.47;;
58878;SDS011;44660;42.664;23.266;2023-04-04T06:16:19;9.02;;;6.80;;
58878;SDS011;44660;42.664;23.266;2023-04-04T06:18:45;8.15;;;5.80;;
58878;SDS011;44660;42.664;23.266;2023-04-04T06:21:11;10.63;;;9.13;;
58878;SDS011;44660;42.664;23.266;2023-04-04T06:23:37;10.77;;;7.47;;
58878;SDS011;44660;42.664;23.266;2023-04-04T06:26:03;8.93;;;7.50;;
58878;SDS011;44660;42.664;23.266;2023-04-04T06:28:28;11.20;;;7.07;;
58878;SDS011;44660;42.664;23.266;2023-04-04T06:30:54;8.60;;;7.70;;
58878;SDS011;44660;42.664;23.266;2023-04-04T06:33:20;8.27;;;6.25;;
58878;SDS011;44660;42.664;23.266;2023-04-04T06:35:45;5.93;;;5.32;;
58878;SDS011;44660;42.664;23.266;2023-04-04T06:38:11;4.63;;;4.10;;
58878;SDS011;44660;42.664;23.266;2023-04-04T06:40:37;3.40;;;3.10;;
58878;SDS011;44660;42.664;23.266;2023-04-04T06:43:02;3.17;;;2.90;;
58878;SDS011;44660;42.664;23.266;2023-04-04T06:45:29;2.33;;;2.13;;
58878;SDS011;44660;42.664;23.266;2023-04-04T06:47:57;2.05;;;1.55;;
58878;SDS011;44660;42.664;23.266;2023-04-04T06:50:23;2.40;;;2.20;;
58878;SDS011;44660;42.664;23.266;2023-04-04T06:52:48;2.17;;;1.85;;
58878;SDS011;44660;42.664;23.266;2023-04-04T06:55:14;2.50;;;2.30;;
58878;SDS011;44660;42.664;23.266;2023-04-04T06:57:40;3.90;;;3.50;;
58878;SDS011;44660;42.664;23.266;2023-04-04T07:00:06;2.65;;;1.60;;
58878;SDS011;44660;42.664;23.266;2023-04-04T07:02:32;1.05;;;0.95;;
58878;SDS011;44660;42.664;23.266;2023-04-04T07:04:58;1.95;;;1.50;;
58878;SDS011;44660;42.664;23.266;2023-04-04T07:07:23;1.90;;;1.23;;
58878;SDS011;44660;42.664;23.266;2023-04-04T07:09:49;3.53;;;1.27;;
58878;SDS011;44660;42.664;23.266;2023-04-04T07:12:15;29.77;;;16.90;;
58878;SDS011;44660;42.664;23.266;2023-04-04T07:14:40;5.13;;;2.03;;
58878;SDS011;44660;42.664;23.266;2023-04-04T07:17:06;1.63;;;1.20;;
58878;SDS011;44660;42.664;23.266;2023-04-04T07:19:32;1.65;;;1.00;;
58878;SDS011;44660;42.664;23.266;2023-04-04T07:21:58;2.28;;;1.40;;
58878;SDS011;44660;42.664;23.266;2023-04-04T07:24:23;6.40;;;3.92;;
58878;SDS011;44660;42.664;23.266;2023-04-04T07:26:48;3.80;;;1.83;;
58878;SDS011;44660;42.664;23.266;2023-04-04T07:29:14;10.13;;;6.45;;
58878;SDS011;44660;42.664;23.266;2023-04-04T07:31:39;1.20;;;0.90;;
58878;SDS011;44660;42.664;23.266;2023-04-04T07:34:05;3.88;;;1.10;;
58878;SDS011;44660;42.664;23.266;2023-04-04T07:36:32;1.60;;;1.02;;
58878;SDS011;44660;42.664;23.266;2023-04-04T07:38:57;1.52;;;0.98;;
58878;SDS011;44660;42.664;23.266;2023-04-04T07:41:23;2.13;;;1.05;;
58878;SDS011;44660;42.664;23.266;2023-04-04T07:43:49;2.22;;;1.35;;
58878;SDS011;44660;42.664;23.266;2023-04-04T07:46:15;1.60;;;1.00;;
58878;SDS011;44660;42.664;23.266;2023-04-04T07:48:41;2.05;;;1.10;;
58878;SDS011;44660;42.664;23.266;2023-04-04T07:51:07;1.75;;;1.10;;
58878;SDS011;44660;42.664;23.266;2023-04-04T07:53:33;1.27;;;0.70;;
58878;SDS011;44660;42.664;23.266;2023-04-04T07:55:58;1.35;;;0.70;;
58878;SDS011;44660;42.664;23.266;2023-04-04T07:58:30;2.20;;;1.30;;
58878;SDS011;44660;42.664;23.266;2023-04-04T08:00:56;1.15;;;0.80;;
58878;SDS011;44660;42.664;23.266;2023-04-04T08:03:21;2.15;;;1.67;;
58878;SDS011;44660;42.664;23.266;2023-04-04T08:05:47;1.50;;;1.10;;
58878;SDS011;44660;42.664;23.266;2023-04-04T08:08:13;2.47;;;1.40;;
58878;SDS011;44660;42.664;23.266;2023-04-04T08:10:39;4.30;;;2.38;;
58878;SDS011;44660;42.664;23.266;2023-04-04T08:13:04;3.95;;;1.88;;
58878;SDS011;44660;42.664;23.266;2023-04-04T08:15:30;1.33;;;0.98;;
58878;SDS011;44660;42.664;23.266;2023-04-04T08:17:56;3.53;;;0.90;;
58878;SDS011;44660;42.664;23.266;2023-04-04T08:20:21;2.40;;;0.80;;
58878;SDS011;44660;42.664;23.266;2023-04-04T08:22:47;2.15;;;1.50;;
58878;SDS011;44660;42.664;23.266;2023-04-04T08:25:12;1.83;;;0.90;;
58878;SDS011;44660;42.664;23.266;2023-04-04T08:27:40;2.05;;;0.93;;
58878;SDS011;44660;42.664;23.266;2023-04-04T08:30:09;2.22;;;0.73;;
58878;SDS011;44660;42.664;23.266;2023-04-04T08:32:35;2.08;;;0.80;;
58878;SDS011;44660;42.664;23.266;2023-04-04T08:35:00;1.67;;;0.75;;
58878;SDS011;44660;42.664;23.266;2023-04-04T08:37:26;3.25;;;1.20;;
58878;SDS011;44660;42.664;23.266;2023-04-04T08:39:53;1.92;;;0.80;;
58878;SDS011;44660;42.664;23.266;2023-04-04T08:42:19;2.70;;;1.30;;
58878;SDS011;44660;42.664;23.266;2023-04-04T08:44:47;3.47;;;1.60;;
58878;SDS011;44660;42.664;23.266;2023-04-04T08:47:16;1.08;;;0.88;;
58878;SDS011;44660;42.664;23.266;2023-04-04T08:49:44;1.15;;;0.70;;
58878;SDS011;44660;42.664;23.266;2023-04-04T08:52:11;1.50;;;1.30;;
58878;SDS011;44660;42.664;23.266;2023-04-04T08:57:07;3.42;;;1.65;;
58878;SDS011;44660;42.664;23.266;2023-04-04T08:59:33;2.30;;;1.50;;
58878;SDS011;44660;42.664;23.266;2023-04-04T09:02:20;1.70;;;1.20;;
58878;SDS011;44660;42.664;23.266;2023-04-04T09:05:05;2.40;;;1.45;;
58878;SDS011;44660;42.664;23.266;2023-04-04T09:07:33;2.80;;;1.30;;
58878;SDS011;44660;42.664;23.266;2023-04-04T09:09:59;6.30;;;2.00;;
58878;SDS011;44660;42.664;23.266;2023-04-04T09:12:26;2.72;;;1.40;;
58878;SDS011;44660;42.664;23.266;2023-04-04T09:14:53;2.95;;;1.80;;
58878;SDS011;44660;42.664;23.266;2023-04-04T09:17:20;2.78;;;1.38;;
58878;SDS011;44660;42.664;23.266;2023-04-04T09:19:46;2.88;;;1.60;;
58878;SDS011;44660;42.664;23.266;2023-04-04T09:22:12;1.63;;;1.33;;
58878;SDS011;44660;42.664;23.266;2023-04-04T09:24:41;1.48;;;1.20;;
58878;SDS011;44660;42.664;23.266;2023-04-04T09:27:07;1.23;;;1.00;;
58878;SDS011;44660;42.664;23.266;2023-04-04T09:29:35;2.15;;;1.10;;
58878;SDS011;44660;42.664;23.266;2023-04-04T09:32:02;1.83;;;0.95;;
58878;SDS011;44660;42.664;23.266;2023-04-04T09:34:27;0.93;;;0.80;;
58878;SDS011;44660;42.664;23.266;2023-04-04T09:36:53;1.45;;;0.95;;
58878;SDS011;44660;42.664;23.266;2023-04-04T09:39:19;1.23;;;1.00;;
58878;SDS011;44660;42.664;23.266;2023-04-04T09:41:47;1.20;;;0.93;;
58878;SDS011;44660;42.664;23.266;2023-04-04T09:44:13;1.73;;;0.98;;
58878;SDS011;44660;42.664;23.266;2023-04-04T09:46:40;1.70;;;1.15;;
58878;SDS011;44660;42.664;23.266;2023-04-04T09:49:19;2.97;;;1.08;;
58878;SDS011;44660;42.664;23.266;2023-04-04T09:51:51;4.38;;;1.65;;
58878;SDS011;44660;42.664;23.266;2023-04-04T09:54:22;3.90;;;1.25;;
58878;SDS011;44660;42.664;23.266;2023-04-04T09:56:50;1.87;;;1.40;;
58878;SDS011;44660;42.664;23.266;2023-04-04T09:59:16;2.33;;;1.38;;
58878;SDS011;44660;42.664;23.266;2023-04-04T10:01:43;7.72;;;2.72;;
58878;SDS011;44660;42.664;23.266;2023-04-04T10:04:10;3.45;;;1.60;;
58878;SDS011;44660;42.664;23.266;2023-04-04T10:06:36;1.85;;;1.35;;
58878;SDS011;44660;42.664;23.266;2023-04-04T10:09:01;2.17;;;1.80;;
58878;SDS011;44660;42.664;23.266;2023-04-04T10:11:31;4.32;;;2.40;;
58878;SDS011;44660;42.664;23.266;2023-04-04T10:16:23;3.33;;;2.28;;
58878;SDS011;44660;42.664;23.266;2023-04-04T10:18:50;2.67;;;1.85;;
58878;SDS011;44660;42.664;23.266;2023-04-04T10:21:16;1.58;;;1.10;;
58878;SDS011;44660;42.664;23.266;2023-04-04T10:23:44;1.23;;;0.95;;
58878;SDS011;44660;42.664;23.266;2023-04-04T10:26:11;2.58;;;1.52;;
58878;SDS011;44660;42.664;23.266;2023-04-04T10:28:37;2.60;;;1.88;;
58878;SDS011;44660;42.664;23.266;2023-04-04T10:36:45;1.83;;;1.30;;
58878;SDS011;44660;42.664;23.266;2023-04-04T10:39:22;1.20;;;1.10;;
58878;SDS011;44660;42.664;23.266;2023-04-04T10:41:51;1.85;;;1.40;;
58878;SDS011;44660;42.664;23.266;2023-04-04T10:44:27;1.27;;;1.00;;
58878;SDS011;44660;42.664;23.266;2023-04-04T10:46:56;2.10;;;1.23;;
58878;SDS011;44660;42.664;23.266;2023-04-04T10:49:23;2.53;;;1.23;;
58878;SDS011;44660;42.664;23.266;2023-04-04T10:51:51;2.55;;;1.42;;
58878;SDS011;44660;42.664;23.266;2023-04-04T10:54:18;3.75;;;1.67;;
58878;SDS011;44660;42.664;23.266;2023-04-04T10:56:44;2.58;;;1.60;;
58878;SDS011;44660;42.664;23.266;2023-04-04T10:59:11;1.77;;;1.10;;
58878;SDS011;44660;42.664;23.266;2023-04-04T11:01:53;1.25;;;1.13;;
58878;SDS011;44660;42.664;23.266;2023-04-04T11:04:33;3.08;;;1.70;;
58878;SDS011;44660;42.664;23.266;2023-04-04T11:12:15;2.90;;;1.60;;
58878;SDS011;44660;42.664;23.266;2023-04-04T11:14:57;4.57;;;2.50;;
58878;SDS011;44660;42.664;23.266;2023-04-04T11:17:39;1.40;;;1.30;;
58878;SDS011;44660;42.664;23.266;2023-04-04T11:20:34;4.07;;;1.70;;
58878;SDS011;44660;42.664;23.266;2023-04-04T11:23:02;3.65;;;2.10;;
58878;SDS011;44660;42.664;23.266;2023-04-04T11:25:40;2.80;;;2.42;;
58878;SDS011;44660;42.664;23.266;2023-04-04T11:28:07;3.70;;;2.30;;
58878;SDS011;44660;42.664;23.266;2023-04-04T11:30:45;3.28;;;2.20;;
58878;SDS011;44660;42.664;23.266;2023-04-04T11:33:23;3.08;;;2.15;;
58878;SDS011;44660;42.664;23.266;2023-04-04T11:35:51;5.60;;;2.53;;
58878;SDS011;44660;42.664;23.266;2023-04-04T11:38:18;3.78;;;2.50;;
58878;SDS011;44660;42.664;23.266;2023-04-04T11:40:51;2.83;;;1.90;;
58878;SDS011;44660;42.664;23.266;2023-04-04T11:43:18;3.20;;;2.53;;
58878;SDS011;44660;42.664;23.266;2023-04-04T11:45:44;5.30;;;3.10;;
58878;SDS011;44660;42.664;23.266;2023-04-04T11:48:11;4.25;;;3.10;;
58878;SDS011;44660;42.664;23.266;2023-04-04T11:50:39;6.60;;;3.97;;
58878;SDS011;44660;42.664;23.266;2023-04-04T11:53:10;16.55;;;6.40;;
58878;SDS011;44660;42.664;23.266;2023-04-04T11:55:40;13.25;;;6.25;;
58878;SDS011;44660;42.664;23.266;2023-04-04T11:58:10;4.72;;;3.05;;
58878;SDS011;44660;42.664;23.266;2023-04-04T12:00:37;2.00;;;1.77;;
58878;SDS011;44660;42.664;23.266;2023-04-04T12:03:10;2.40;;;2.10;;
58878;SDS011;44660;42.664;23.266;2023-04-04T12:05:37;3.53;;;2.33;;
58878;SDS011;44660;42.664;23.266;2023-04-04T12:08:03;2.55;;;2.30;;
58878;SDS011;44660;42.664;23.266;2023-04-04T12:10:34;5.25;;;2.72;;
58878;SDS011;44660;42.664;23.266;2023-04-04T12:15:29;7.85;;;4.10;;
58878;SDS011;44660;42.664;23.266;2023-04-04T12:17:55;5.75;;;3.78;;
58878;SDS011;44660;42.664;23.266;2023-04-04T12:20:22;5.10;;;3.47;;
58878;SDS011;44660;42.664;23.266;2023-04-04T12:22:48;3.95;;;3.35;;
58878;SDS011;44660;42.664;23.266;2023-04-04T12:25:16;5.90;;;4.13;;
58878;SDS011;44660;42.664;23.266;2023-04-04T12:27:44;6.22;;;4.50;;
58878;SDS011;44660;42.664;23.266;2023-04-04T12:30:10;8.13;;;3.53;;
58878;SDS011;44660;42.664;23.266;2023-04-04T12:32:40;3.13;;;2.63;;
58878;SDS011;44660;42.664;23.266;2023-04-04T12:35:10;3.05;;;2.65;;
58878;SDS011;44660;42.664;23.266;2023-04-04T12:37:37;5.30;;;4.43;;
58878;SDS011;44660;42.664;23.266;2023-04-04T12:40:04;5.65;;;3.30;;
58878;SDS011;44660;42.664;23.266;2023-04-04T12:42:31;3.47;;;3.13;;
58878;SDS011;44660;42.664;23.266;2023-04-04T12:45:00;4.72;;;3.65;;
58878;SDS011;44660;42.664;23.266;2023-04-04T12:47:27;7.13;;;3.33;;
58878;SDS011;44660;42.664;23.266;2023-04-04T12:49:55;4.10;;;3.25;;
58878;SDS011;44660;42.664;23.266;2023-04-04T12:52:29;4.03;;;3.03;;
58878;SDS011;44660;42.664;23.266;2023-04-04T12:54:59;4.72;;;3.58;;
58878;SDS011;44660;42.664;23.266;2023-04-04T12:57:33;4.22;;;3.63;;
58878;SDS011;44660;42.664;23.266;2023-04-04T12:59:59;4.07;;;3.38;;
58878;SDS011;44660;42.664;23.266;2023-04-04T13:02:26;4.15;;;3.38;;
58878;SDS011;44660;42.664;23.266;2023-04-04T13:04:53;5.68;;;3.70;;
58878;SDS011;44660;42.664;23.266;2023-04-04T13:09:56;6.70;;;4.18;;
58878;SDS011;44660;42.664;23.266;2023-04-04T13:12:23;5.38;;;3.65;;
58878;SDS011;44660;42.664;23.266;2023-04-04T13:15:00;5.07;;;3.47;;
58878;SDS011;44660;42.664;23.266;2023-04-04T13:17:40;4.50;;;3.70;;
58878;SDS011;44660;42.664;23.266;2023-04-04T13:20:07;8.35;;;5.30;;
58878;SDS011;44660;42.664;23.266;2023-04-04T13:22:36;4.75;;;3.70;;
58878;SDS011;44660;42.664;23.266;2023-04-04T13:25:03;5.25;;;3.90;;
58878;SDS011;44660;42.664;23.266;2023-04-04T13:27:30;3.85;;;3.45;;
58878;SDS011;44660;42.664;23.266;2023-04-04T13:29:55;4.95;;;3.80;;
58878;SDS011;44660;42.664;23.266;2023-04-04T13:32:21;5.93;;;4.47;;
58878;SDS011;44660;42.664;23.266;2023-04-04T13:34:47;4.93;;;3.53;;
58878;SDS011;44660;42.664;23.266;2023-04-04T13:37:12;5.75;;;4.55;;
58878;SDS011;44660;42.664;23.266;2023-04-04T13:39:38;5.88;;;4.30;;
58878;SDS011;44660;42.664;23.266;2023-04-04T13:42:03;5.60;;;4.45;;
58878;SDS011;44660;42.664;23.266;2023-04-04T13:44:28;5.07;;;4.30;;
58878;SDS011;44660;42.664;23.266;2023-04-04T13:46:54;9.30;;;5.72;;
58878;SDS011;44660;42.664;23.266;2023-04-04T13:49:20;9.30;;;6.30;;
58878;SDS011;44660;42.664;23.266;2023-04-04T13:51:46;7.45;;;4.95;;
58878;SDS011;44660;42.664;23.266;2023-04-04T13:54:11;8.05;;;5.35;;
58878;SDS011;44660;42.664;23.266;2023-04-04T13:56:37;12.45;;;7.10;;
58878;SDS011;44660;42.664;23.266;2023-04-04T13:59:02;13.10;;;6.28;;
58878;SDS011;44660;42.664;23.266;2023-04-04T14:01:28;7.15;;;4.88;;
58878;SDS011;44660;42.664;23.266;2023-04-04T14:03:54;8.07;;;5.30;;
58878;SDS011;44660;42.664;23.266;2023-04-04T14:06:19;17.90;;;7.82;;
58878;SDS011;44660;42.664;23.266;2023-04-04T14:08:45;10.25;;;5.68;;
58878;SDS011;44660;42.664;23.266;2023-04-04T14:11:11;9.50;;;6.20;;
58878;SDS011;44660;42.664;23.266;2023-04-04T14:13:40;10.25;;;6.45;;
58878;SDS011;44660;42.664;23.266;2023-04-04T14:16:06;14.60;;;7.75;;
58878;SDS011;44660;42.664;23.266;2023-04-04T14:18:33;13.60;;;6.50;;
58878;SDS011;44660;42.664;23.266;2023-04-04T14:20:59;7.30;;;5.32;;
58878;SDS011;44660;42.664;23.266;2023-04-04T14:23:25;7.60;;;5.32;;
58878;SDS011;44660;42.664;23.266;2023-04-04T14:25:51;11.60;;;6.57;;
58878;SDS011;44660;42.664;23.266;2023-04-04T14:28:16;11.40;;;6.55;;
58878;SDS011;44660;42.664;23.266;2023-04-04T14:30:42;10.27;;;6.50;;
58878;SDS011;44660;42.664;23.266;2023-04-04T14:33:08;17.05;;;7.13;;
58878;SDS011;44660;42.664;23.266;2023-04-04T14:35:33;10.98;;;6.25;;
58878;SDS011;44660;42.664;23.266;2023-04-04T14:38:00;11.18;;;6.82;;
58878;SDS011;44660;42.664;23.266;2023-04-04T14:40:27;8.15;;;6.53;;
58878;SDS011;44660;42.664;23.266;2023-04-04T14:42:53;7.63;;;5.80;;
58878;SDS011;44660;42.664;23.266;2023-04-04T14:45:18;9.02;;;6.40;;
58878;SDS011;44660;42.664;23.266;2023-04-04T14:47:44;10.23;;;6.80;;
58878;SDS011;44660;42.664;23.266;2023-04-04T14:50:10;9.40;;;7.03;;
58878;SDS011;44660;42.664;23.266;2023-04-04T14:52:36;9.65;;;7.18;;
58878;SDS011;44660;42.664;23.266;2023-04-04T14:55:02;9.95;;;7.50;;